createdAt,value
2022-11-10T00:00:01.355Z,1013.07
2022-11-10T00:01:01.368Z,1013.11
2022-11-10T00:02:01.348Z,1013.12
2022-11-10T00:03:01.343Z,1013.10
2022-11-10T00:04:01.397Z,1013.07
2022-11-10T00:05:01.338Z,1013.12
2022-11-10T00:06:01.338Z,1013.13
2022-11-10T00:07:01.397Z,1013.14
2022-11-10T00:08:01.330Z,1013.12
2022-11-10T00:09:01.331Z,1013.20
2022-11-10T00:10:01.330Z,1013.21
2022-11-10T00:11:01.419Z,1013.22
2022-11-10T00:12:01.320Z,1013.20
2022-11-10T00:13:04.374Z,1013.23
2022-11-10T00:14:01.349Z,1013.25
2022-11-10T00:15:01.322Z,1013.29
2022-11-10T00:16:01.316Z,1013.31
2022-11-10T00:17:01.337Z,1013.30
2022-11-10T00:18:01.308Z,1013.31
2022-11-10T00:19:01.305Z,1013.32
2022-11-10T00:20:01.313Z,1013.35
2022-11-10T00:21:01.300Z,1013.33
2022-11-10T00:22:01.301Z,1013.34
2022-11-10T00:23:01.325Z,1013.33
2022-11-10T00:24:01.296Z,1013.34
2022-11-10T00:25:01.289Z,1013.30
2022-11-10T00:26:01.293Z,1013.28
2022-11-10T00:27:01.287Z,1013.30
2022-11-10T00:28:01.284Z,1013.30
2022-11-10T00:29:01.283Z,1013.32
2022-11-10T00:30:01.300Z,1013.25
2022-11-10T00:31:01.282Z,1013.28
2022-11-10T00:32:01.273Z,1013.28
2022-11-10T00:33:01.361Z,1013.29
2022-11-10T00:34:01.268Z,1013.26
2022-11-10T00:35:01.267Z,1013.34
2022-11-10T00:36:01.267Z,1013.30
2022-11-10T00:37:01.261Z,1013.34
2022-11-10T00:38:01.262Z,1013.36
2022-11-10T00:39:01.259Z,1013.36
2022-11-10T00:40:01.256Z,1013.42
2022-11-10T00:41:01.253Z,1013.39
2022-11-10T00:42:01.255Z,1013.40
2022-11-10T00:43:01.249Z,1013.43
2022-11-10T00:44:01.248Z,1013.45
2022-11-10T00:45:01.242Z,1013.43
2022-11-10T00:46:01.248Z,1013.48
2022-11-10T00:47:01.240Z,1013.48
2022-11-10T00:48:01.237Z,1013.50
2022-11-10T00:49:01.255Z,1013.52
2022-11-10T00:50:01.237Z,1013.48
2022-11-10T00:51:01.230Z,1013.51
2022-11-10T00:52:01.227Z,1013.58
2022-11-10T00:53:01.230Z,1013.61
2022-11-10T00:54:01.230Z,1013.65
2022-11-10T00:55:01.224Z,1013.66
2022-11-10T00:56:01.221Z,1013.63
2022-11-10T00:57:01.219Z,1013.62
2022-11-10T00:58:01.215Z,1013.61
2022-11-10T00:59:01.226Z,1013.62
2022-11-10T01:00:01.213Z,1013.65
2022-11-10T01:01:01.249Z,1013.67
2022-11-10T01:02:01.207Z,1013.62
2022-11-10T01:03:01.199Z,1013.61
2022-11-10T01:04:01.202Z,1013.55
2022-11-10T01:05:01.216Z,1013.57
2022-11-10T01:06:01.196Z,1013.57
2022-11-10T01:07:01.368Z,1013.59
2022-11-10T01:08:01.191Z,1013.60
2022-11-10T01:09:01.233Z,1013.60
2022-11-10T01:10:01.244Z,1013.60
2022-11-10T01:11:01.232Z,1013.61
2022-11-10T01:12:01.229Z,1013.60
2022-11-10T01:13:01.230Z,1013.63
2022-11-10T01:14:01.223Z,1013.68
2022-11-10T01:15:01.174Z,1013.71
2022-11-10T01:16:01.168Z,1013.79
2022-11-10T01:17:01.167Z,1013.76
2022-11-10T01:18:01.163Z,1013.78
2022-11-10T01:19:01.165Z,1013.81
2022-11-10T01:20:01.159Z,1013.77
2022-11-10T01:21:01.175Z,1013.80
2022-11-10T01:22:01.165Z,1013.81
2022-11-10T01:23:01.152Z,1013.79
2022-11-10T01:24:01.154Z,1013.79
2022-11-10T01:25:01.146Z,1013.80
2022-11-10T01:26:01.143Z,1013.86
2022-11-10T01:27:01.145Z,1013.89
2022-11-10T01:28:01.137Z,1013.90
2022-11-10T01:29:01.137Z,1013.85
2022-11-10T01:30:01.133Z,1013.88
2022-11-10T01:31:01.134Z,1013.90
2022-11-10T01:32:01.328Z,1013.86
2022-11-10T01:33:01.126Z,1013.89
2022-11-10T01:34:01.126Z,1013.89
2022-11-10T01:35:01.122Z,1013.91
2022-11-10T01:36:01.120Z,1013.94
2022-11-10T01:37:01.137Z,1013.99
2022-11-10T01:38:01.116Z,1013.98
2022-11-10T01:39:01.128Z,1013.97
2022-11-10T01:40:01.256Z,1013.96
2022-11-10T01:41:01.112Z,1013.98
2022-11-10T01:42:01.105Z,1013.99
2022-11-10T01:43:01.107Z,1013.99
2022-11-10T01:44:01.104Z,1013.97
2022-11-10T01:45:01.100Z,1013.96
2022-11-10T01:46:01.098Z,1013.93
2022-11-10T01:47:01.101Z,1013.91
2022-11-10T01:48:01.089Z,1013.92
2022-11-10T01:49:01.091Z,1013.98
2022-11-10T01:50:01.084Z,1013.98
2022-11-10T01:51:01.084Z,1014.02
2022-11-10T01:52:01.078Z,1014.01
2022-11-10T01:53:01.104Z,1014.02
2022-11-10T01:54:01.093Z,1014.01
2022-11-10T01:55:01.083Z,1014.04
2022-11-10T01:56:01.072Z,1014.02
2022-11-10T01:57:01.071Z,1014.04
2022-11-10T01:58:01.062Z,1014.10
2022-11-10T01:59:01.063Z,1014.09
2022-11-10T02:00:01.060Z,1014.14
2022-11-10T02:01:01.110Z,1014.17
2022-11-10T02:02:01.063Z,1014.15
2022-11-10T02:03:01.049Z,1014.22
2022-11-10T02:04:01.045Z,1014.22
2022-11-10T02:05:01.043Z,1014.15
2022-11-10T02:06:01.041Z,1014.16
2022-11-10T02:07:01.062Z,1014.13
2022-11-10T02:08:01.032Z,1014.15
2022-11-10T02:09:01.050Z,1014.15
2022-11-10T02:10:01.026Z,1014.17
2022-11-10T02:11:01.032Z,1014.20
2022-11-10T02:12:01.022Z,1014.20
2022-11-10T02:13:01.023Z,1014.21
2022-11-10T02:14:01.016Z,1014.26
2022-11-10T02:15:01.013Z,1014.28
2022-11-10T02:16:01.008Z,1014.32
2022-11-10T02:17:01.008Z,1014.31
2022-11-10T02:18:01.013Z,1014.31
2022-11-10T02:19:01.005Z,1014.29
2022-11-10T02:20:00.999Z,1014.32
2022-11-10T02:21:00.998Z,1014.29
2022-11-10T02:22:00.993Z,1014.32
2022-11-10T02:23:00.991Z,1014.33
2022-11-10T02:24:00.991Z,1014.34
2022-11-10T02:25:01.017Z,1014.31
2022-11-10T02:26:00.981Z,1014.38
2022-11-10T02:27:00.977Z,1014.38
2022-11-10T02:28:00.972Z,1014.44
2022-11-10T02:29:00.980Z,1014.45
2022-11-10T02:30:00.967Z,1014.44
2022-11-10T02:31:00.963Z,1014.46
2022-11-10T02:32:00.959Z,1014.42
2022-11-10T02:33:00.959Z,1014.44
2022-11-10T02:34:00.955Z,1014.40
2022-11-10T02:35:00.950Z,1014.47
2022-11-10T02:36:00.949Z,1014.45
2022-11-10T02:37:00.948Z,1014.42
2022-11-10T02:38:00.955Z,1014.42
2022-11-10T02:39:00.944Z,1014.36
2022-11-10T02:40:00.952Z,1014.37
2022-11-10T02:41:00.961Z,1014.38
2022-11-10T02:42:00.931Z,1014.39
2022-11-10T02:43:00.926Z,1014.41
2022-11-10T02:44:00.947Z,1014.44
2022-11-10T02:45:00.925Z,1014.42
2022-11-10T02:46:00.923Z,1014.44
2022-11-10T02:47:00.916Z,1014.47
2022-11-10T02:48:00.912Z,1014.51
2022-11-10T02:49:00.909Z,1014.49
2022-11-10T02:50:00.905Z,1014.49
2022-11-10T02:51:00.906Z,1014.47
2022-11-10T02:52:00.900Z,1014.47
2022-11-10T02:53:00.900Z,1014.42
2022-11-10T02:54:00.894Z,1014.46
2022-11-10T02:55:00.891Z,1014.44
2022-11-10T02:56:00.886Z,1014.47
2022-11-10T02:57:00.900Z,1014.49
2022-11-10T02:58:00.879Z,1014.45
2022-11-10T02:59:00.875Z,1014.51
2022-11-10T03:00:00.873Z,1014.47
2022-11-10T03:01:00.908Z,1014.52
2022-11-10T03:02:00.867Z,1014.52
2022-11-10T03:03:00.864Z,1014.52
2022-11-10T03:04:00.867Z,1014.54
2022-11-10T03:05:00.855Z,1014.57
2022-11-10T03:06:00.854Z,1014.60
2022-11-10T03:07:00.997Z,1014.67
2022-11-10T03:08:00.853Z,1014.66
2022-11-10T03:09:00.848Z,1014.68
2022-11-10T03:10:00.840Z,1014.74
2022-11-10T03:11:00.839Z,1014.71
2022-11-10T03:12:00.841Z,1014.75
2022-11-10T03:13:00.851Z,1014.76
2022-11-10T03:14:02.558Z,1014.73
2022-11-10T03:15:00.826Z,1014.78
2022-11-10T03:16:00.824Z,1014.81
2022-11-10T03:17:00.819Z,1014.79
2022-11-10T03:18:00.819Z,1014.87
2022-11-10T03:19:00.822Z,1014.90
2022-11-10T03:20:00.807Z,1014.89
2022-11-10T03:21:00.808Z,1014.87
2022-11-10T03:22:00.802Z,1014.87
2022-11-10T03:23:00.800Z,1014.76
2022-11-10T03:24:00.796Z,1014.79
2022-11-10T03:25:00.791Z,1014.78
2022-11-10T03:26:00.790Z,1014.76
2022-11-10T03:27:00.786Z,1014.78
2022-11-10T03:28:00.780Z,1014.84
2022-11-10T03:29:00.800Z,1014.79
2022-11-10T03:30:00.779Z,1014.75
2022-11-10T03:31:00.773Z,1014.74
2022-11-10T03:32:00.767Z,1014.75
2022-11-10T03:33:00.768Z,1014.78
2022-11-10T03:34:00.762Z,1014.82
2022-11-10T03:35:00.760Z,1014.83
2022-11-10T03:36:00.753Z,1014.90
2022-11-10T03:37:00.750Z,1014.93
2022-11-10T03:38:00.747Z,1014.95
2022-11-10T03:39:00.747Z,1014.99
2022-11-10T03:40:00.740Z,1014.99
2022-11-10T03:42:00.734Z,1014.99
2022-11-10T03:43:00.729Z,1014.90
2022-11-10T03:44:00.727Z,1014.92
2022-11-10T03:45:00.748Z,1014.85
2022-11-10T03:46:00.720Z,1014.81
2022-11-10T03:47:00.720Z,1014.88
2022-11-10T03:48:00.713Z,1014.91
2022-11-10T03:49:00.715Z,1014.93
2022-11-10T03:50:00.706Z,1015.02
2022-11-10T03:51:00.709Z,1015.09
2022-11-10T03:52:00.700Z,1015.11
2022-11-10T03:53:00.698Z,1015.14
2022-11-10T03:54:00.695Z,1015.15
2022-11-10T03:55:03.474Z,1015.20
2022-11-10T03:56:00.686Z,1015.21
2022-11-10T03:57:00.685Z,1015.28
2022-11-10T03:58:00.678Z,1015.27
2022-11-10T03:59:00.678Z,1015.31
2022-11-10T04:00:00.683Z,1015.31
2022-11-10T04:01:00.690Z,1015.35
2022-11-10T04:02:00.763Z,1015.33
2022-11-10T04:03:00.663Z,1015.33
2022-11-10T04:04:00.658Z,1015.33
2022-11-10T04:05:00.661Z,1015.35
2022-11-10T04:06:00.656Z,1015.36
2022-11-10T04:07:00.809Z,1015.35
2022-11-10T04:08:00.647Z,1015.31
2022-11-10T04:09:00.653Z,1015.35
2022-11-10T04:10:00.638Z,1015.38
2022-11-10T04:11:00.636Z,1015.36
2022-11-10T04:12:00.632Z,1015.34
2022-11-10T04:13:00.635Z,1015.36
2022-11-10T04:14:00.621Z,1015.40
2022-11-10T04:15:00.622Z,1015.36
2022-11-10T04:16:00.618Z,1015.38
2022-11-10T04:17:00.632Z,1015.43
2022-11-10T04:18:00.610Z,1015.46
2022-11-10T04:19:00.610Z,1015.40
2022-11-10T04:20:00.601Z,1015.47
2022-11-10T04:21:00.598Z,1015.45
2022-11-10T04:22:00.597Z,1015.49
2022-11-10T04:23:00.600Z,1015.51
2022-11-10T04:24:00.587Z,1015.54
2022-11-10T04:25:00.588Z,1015.63
2022-11-10T04:26:00.579Z,1015.62
2022-11-10T04:27:00.580Z,1015.62
2022-11-10T04:28:00.572Z,1015.66
2022-11-10T04:29:00.573Z,1015.71
2022-11-10T04:30:00.568Z,1015.72
2022-11-10T04:31:00.568Z,1015.71
2022-11-10T04:32:00.560Z,1015.74
2022-11-10T04:33:00.574Z,1015.76
2022-11-10T04:34:00.557Z,1015.77
2022-11-10T04:35:00.554Z,1015.77
2022-11-10T04:36:00.545Z,1015.80
2022-11-10T04:37:00.544Z,1015.80
2022-11-10T04:38:00.537Z,1015.80
2022-11-10T04:39:00.536Z,1015.81
2022-11-10T04:40:00.535Z,1015.82
2022-11-10T04:41:00.528Z,1015.80
2022-11-10T04:42:02.650Z,1015.77
2022-11-10T04:43:00.528Z,1015.80
2022-11-10T04:44:00.517Z,1015.78
2022-11-10T04:45:00.512Z,1015.79
2022-11-10T04:46:00.515Z,1015.80
2022-11-10T04:47:00.510Z,1015.78
2022-11-10T04:48:00.501Z,1015.80
2022-11-10T04:49:00.520Z,1015.78
2022-11-10T04:50:00.494Z,1015.85
2022-11-10T04:51:00.503Z,1015.88
2022-11-10T04:52:00.537Z,1015.95
2022-11-10T04:53:00.487Z,1015.95
2022-11-10T04:54:00.480Z,1015.97
2022-11-10T04:55:00.480Z,1015.98
2022-11-10T04:56:00.473Z,1016.05
2022-11-10T04:57:00.471Z,1016.05
2022-11-10T04:58:00.466Z,1016.09
2022-11-10T04:59:00.463Z,1016.08
2022-11-10T05:00:00.462Z,1016.09
2022-11-10T05:01:00.521Z,1016.12
2022-11-10T05:02:00.450Z,1016.19
2022-11-10T05:03:00.449Z,1016.14
2022-11-10T05:04:00.444Z,1016.20
2022-11-10T05:05:00.460Z,1016.22
2022-11-10T05:06:00.434Z,1016.19
2022-11-10T05:07:00.613Z,1016.18
2022-11-10T05:08:00.430Z,1016.21
2022-11-10T05:09:00.429Z,1016.19
2022-11-10T05:10:00.421Z,1016.21
2022-11-10T05:11:00.422Z,1016.20
2022-11-10T05:12:00.514Z,1016.20
2022-11-10T05:13:00.418Z,1016.22
2022-11-10T05:14:00.405Z,1016.23
2022-11-10T05:15:00.419Z,1016.25
2022-11-10T05:16:00.401Z,1016.25
2022-11-10T05:17:00.547Z,1016.29
2022-11-10T05:18:00.391Z,1016.31
2022-11-10T05:19:00.395Z,1016.28
2022-11-10T05:20:00.385Z,1016.35
2022-11-10T05:21:00.407Z,1016.35
2022-11-10T05:22:00.529Z,1016.37
2022-11-10T05:23:00.379Z,1016.42
2022-11-10T05:24:00.368Z,1016.43
2022-11-10T05:25:00.365Z,1016.51
2022-11-10T05:26:00.363Z,1016.54
2022-11-10T05:27:00.362Z,1016.56
2022-11-10T05:28:00.353Z,1016.56
2022-11-10T05:29:00.352Z,1016.52
2022-11-10T05:30:00.350Z,1016.55
2022-11-10T05:31:00.348Z,1016.55
2022-11-10T05:32:00.345Z,1016.55
2022-11-10T05:33:00.343Z,1016.56
2022-11-10T05:34:00.352Z,1016.54
2022-11-10T05:35:00.350Z,1016.57
2022-11-10T05:36:00.325Z,1016.50
2022-11-10T05:37:00.339Z,1016.56
2022-11-10T05:38:00.327Z,1016.54
2022-11-10T05:39:00.311Z,1016.56
2022-11-10T05:40:00.317Z,1016.55
2022-11-10T05:41:00.324Z,1016.58
2022-11-10T05:42:00.304Z,1016.59
2022-11-10T05:43:00.302Z,1016.64
2022-11-10T05:44:00.297Z,1016.68
2022-11-10T05:45:00.301Z,1016.67
2022-11-10T05:46:00.300Z,1016.67
2022-11-10T05:47:00.285Z,1016.70
2022-11-10T05:48:00.289Z,1016.66
2022-11-10T05:49:00.279Z,1016.64
2022-11-10T05:50:00.276Z,1016.66
2022-11-10T05:51:00.280Z,1016.63
2022-11-10T05:52:00.264Z,1016.69
2022-11-10T05:53:00.277Z,1016.69
2022-11-10T05:54:00.289Z,1016.70
2022-11-10T05:55:00.254Z,1016.70
2022-11-10T05:56:00.257Z,1016.74
2022-11-10T05:57:00.260Z,1016.77
2022-11-10T05:58:00.243Z,1016.80
2022-11-10T05:59:00.235Z,1016.83
2022-11-10T06:00:00.235Z,1016.82
2022-11-10T06:01:00.232Z,1016.82
2022-11-10T06:02:00.235Z,1016.83
2022-11-10T06:03:00.233Z,1016.82
2022-11-10T06:04:00.313Z,1016.84
2022-11-10T06:05:00.218Z,1016.87
2022-11-10T06:06:00.221Z,1016.88
2022-11-10T06:07:00.271Z,1016.86
2022-11-10T06:08:00.214Z,1016.88
2022-11-10T06:09:00.221Z,1016.86
2022-11-10T06:10:00.215Z,1016.91
2022-11-10T06:11:00.204Z,1016.90
2022-11-10T06:12:00.194Z,1016.92
2022-11-10T06:13:00.191Z,1016.94
2022-11-10T06:14:00.185Z,1016.96
2022-11-10T06:15:00.191Z,1016.99
2022-11-10T06:16:00.178Z,1016.95
2022-11-10T06:17:00.173Z,1016.98
2022-11-10T06:18:00.187Z,1016.99
2022-11-10T06:19:00.178Z,1017.01
2022-11-10T06:20:00.164Z,1016.99
2022-11-10T06:21:00.157Z,1017.01
2022-11-10T06:22:05.009Z,1017.04
2022-11-10T06:23:00.190Z,1017.02
2022-11-10T06:24:00.155Z,1017.01
2022-11-10T06:25:00.173Z,1017.05
2022-11-10T06:26:00.147Z,1017.04
2022-11-10T06:27:00.138Z,1017.09
2022-11-10T06:28:00.136Z,1017.10
2022-11-10T06:29:00.132Z,1017.13
2022-11-10T06:30:00.133Z,1017.15
2022-11-10T06:31:00.125Z,1017.17
2022-11-10T06:32:00.120Z,1017.20
2022-11-10T06:33:00.114Z,1017.18
2022-11-10T06:34:00.115Z,1017.21
2022-11-10T06:35:00.844Z,1017.22
2022-11-10T06:36:00.108Z,1017.24
2022-11-10T06:37:00.120Z,1017.23
2022-11-10T06:38:00.102Z,1017.24
2022-11-10T06:39:00.095Z,1017.26
2022-11-10T06:40:00.096Z,1017.26
2022-11-10T06:41:00.108Z,1017.29
2022-11-10T06:42:00.089Z,1017.31
2022-11-10T06:43:00.081Z,1017.32
2022-11-10T06:44:00.091Z,1017.36
2022-11-10T06:45:00.089Z,1017.39
2022-11-10T06:46:00.092Z,1017.40
2022-11-10T06:47:00.070Z,1017.46
2022-11-10T06:48:00.069Z,1017.42
2022-11-10T06:49:00.059Z,1017.46
2022-11-10T06:50:00.063Z,1017.49
2022-11-10T06:51:00.050Z,1017.49
2022-11-10T06:52:00.048Z,1017.51
2022-11-10T06:53:00.062Z,1017.54
2022-11-10T06:54:00.054Z,1017.57
2022-11-10T06:55:00.041Z,1017.57
2022-11-10T06:56:00.034Z,1017.53
2022-11-10T06:57:00.051Z,1017.61
2022-11-10T06:58:00.029Z,1017.58
2022-11-10T06:59:00.042Z,1017.63
2022-11-10T07:00:00.035Z,1017.63
2022-11-10T07:01:00.094Z,1017.69
2022-11-10T07:02:00.013Z,1017.66
2022-11-10T07:03:00.007Z,1017.70
2022-11-10T07:04:18.721Z,1017.74
2022-11-10T07:05:00.002Z,1017.73
2022-11-10T07:06:00.001Z,1017.76
2022-11-10T07:07:00.022Z,1017.81
2022-11-10T07:07:59.997Z,1017.83
2022-11-10T07:08:59.992Z,1017.85
2022-11-10T07:10:05.699Z,1017.91
2022-11-10T07:10:59.982Z,1017.88
2022-11-10T07:11:59.978Z,1017.93
2022-11-10T07:13:00.001Z,1017.97
2022-11-10T07:13:59.968Z,1018.00
2022-11-10T07:14:59.969Z,1018.01
2022-11-10T07:15:59.963Z,1018.04
2022-11-10T07:16:59.956Z,1018.06
2022-11-10T07:17:59.957Z,1018.08
2022-11-10T07:18:59.954Z,1018.05
2022-11-10T07:19:59.948Z,1018.08
2022-11-10T07:20:59.943Z,1018.07
2022-11-10T07:21:59.940Z,1018.10
2022-11-10T07:22:59.945Z,1018.09
2022-11-10T07:23:59.933Z,1018.14
2022-11-10T07:24:59.933Z,1018.12
2022-11-10T07:25:59.927Z,1018.15
2022-11-10T07:26:59.921Z,1018.21
2022-11-10T07:27:59.923Z,1018.19
2022-11-10T07:28:59.946Z,1018.23
2022-11-10T07:29:59.916Z,1018.28
2022-11-10T07:30:59.908Z,1018.28
2022-11-10T07:31:59.908Z,1018.32
2022-11-10T07:32:59.899Z,1018.33
2022-11-10T07:33:59.896Z,1018.36
2022-11-10T07:34:59.895Z,1018.37
2022-11-10T07:35:59.893Z,1018.41
2022-11-10T07:36:59.883Z,1018.41
2022-11-10T07:37:59.883Z,1018.41
2022-11-10T07:38:59.882Z,1018.43
2022-11-10T07:39:59.946Z,1018.39
2022-11-10T07:40:59.878Z,1018.44
2022-11-10T07:41:59.868Z,1018.43
2022-11-10T07:42:59.863Z,1018.46
2022-11-10T07:43:59.860Z,1018.47
2022-11-10T07:44:59.872Z,1018.43
2022-11-10T07:45:59.854Z,1018.45
2022-11-10T07:46:59.848Z,1018.47
2022-11-10T07:47:59.848Z,1018.44
2022-11-10T07:48:59.841Z,1018.46
2022-11-10T07:49:59.840Z,1018.48
2022-11-10T07:50:59.835Z,1018.50
2022-11-10T07:51:59.832Z,1018.52
2022-11-10T07:52:59.826Z,1018.50
2022-11-10T07:53:59.823Z,1018.48
2022-11-10T07:54:59.823Z,1018.48
2022-11-10T07:55:59.823Z,1018.54
2022-11-10T07:56:59.819Z,1018.57
2022-11-10T07:57:59.812Z,1018.57
2022-11-10T07:58:59.806Z,1018.59
2022-11-10T07:59:59.801Z,1018.64
2022-11-10T08:00:59.817Z,1018.66
2022-11-10T08:01:59.881Z,1018.73
2022-11-10T08:02:59.792Z,1018.76
2022-11-10T08:03:59.789Z,1018.80
2022-11-10T08:04:59.785Z,1018.78
2022-11-10T08:05:59.782Z,1018.82
2022-11-10T08:06:59.944Z,1018.83
2022-11-10T08:07:59.776Z,1018.84
2022-11-10T08:08:59.773Z,1018.84
2022-11-10T08:09:59.774Z,1018.85
2022-11-10T08:10:59.770Z,1018.88
2022-11-10T08:11:59.768Z,1018.91
2022-11-10T08:12:59.757Z,1018.94
2022-11-10T08:13:59.763Z,1019.00
2022-11-10T08:14:59.754Z,1019.01
2022-11-10T08:15:59.747Z,1019.00
2022-11-10T08:16:59.765Z,1018.97
2022-11-10T08:17:59.744Z,1018.97
2022-11-10T08:18:59.739Z,1018.99
2022-11-10T08:19:59.742Z,1019.01
2022-11-10T08:20:59.732Z,1019.02
2022-11-10T08:21:59.732Z,1019.02
2022-11-10T08:22:59.727Z,1019.03
2022-11-10T08:23:59.724Z,1019.03
2022-11-10T08:24:59.717Z,1019.05
2022-11-10T08:25:59.719Z,1019.04
2022-11-10T08:26:59.712Z,1019.05
2022-11-10T08:27:59.711Z,1019.12
2022-11-10T08:28:59.704Z,1019.09
2022-11-10T08:29:59.711Z,1019.11
2022-11-10T08:31:05.133Z,1019.10
2022-11-10T08:31:59.698Z,1019.11
2022-11-10T08:32:59.713Z,1019.15
2022-11-10T08:33:59.691Z,1019.15
2022-11-10T08:34:59.686Z,1019.15
2022-11-10T08:35:59.683Z,1019.17
2022-11-10T08:36:59.678Z,1019.17
2022-11-10T08:37:59.677Z,1019.18
2022-11-10T08:38:59.676Z,1019.17
2022-11-10T08:39:59.669Z,1019.20
2022-11-10T08:40:59.667Z,1019.19
2022-11-10T08:41:59.667Z,1019.26
2022-11-10T08:42:59.668Z,1019.23
2022-11-10T08:43:59.664Z,1019.24
2022-11-10T08:44:59.654Z,1019.21
2022-11-10T08:45:59.653Z,1019.23
2022-11-10T08:46:59.654Z,1019.23
2022-11-10T08:47:59.648Z,1019.23
2022-11-10T08:48:59.662Z,1019.27
2022-11-10T08:49:59.640Z,1019.29
2022-11-10T08:50:59.635Z,1019.30
2022-11-10T08:51:59.632Z,1019.25
2022-11-10T08:52:59.630Z,1019.31
2022-11-10T08:53:59.628Z,1019.35
2022-11-10T08:54:59.623Z,1019.42
2022-11-10T08:55:59.619Z,1019.43
2022-11-10T08:56:59.621Z,1019.46
2022-11-10T08:57:59.614Z,1019.49
2022-11-10T08:58:59.624Z,1019.49
2022-11-10T08:59:59.610Z,1019.48
2022-11-10T09:00:59.606Z,1019.48
2022-11-10T09:01:59.615Z,1019.49
2022-11-10T09:02:59.599Z,1019.47
2022-11-10T09:03:59.600Z,1019.52
2022-11-10T09:04:59.690Z,1019.52
2022-11-10T09:05:59.591Z,1019.55
2022-11-10T09:06:59.690Z,1019.58
2022-11-10T09:07:59.583Z,1019.59
2022-11-10T09:08:59.587Z,1019.61
2022-11-10T09:10:07.067Z,1019.61
2022-11-10T09:10:59.575Z,1019.60
2022-11-10T09:11:59.570Z,1019.58
2022-11-10T09:12:59.568Z,1019.56
2022-11-10T09:13:59.571Z,1019.57
2022-11-10T09:14:59.565Z,1019.56
2022-11-10T09:15:59.574Z,1019.54
2022-11-10T09:16:59.559Z,1019.53
2022-11-10T09:17:59.556Z,1019.55
2022-11-10T09:18:59.556Z,1019.53
2022-11-10T09:19:59.595Z,1019.54
2022-11-10T09:20:59.563Z,1019.54
2022-11-10T09:21:59.544Z,1019.52
2022-11-10T09:22:59.540Z,1019.50
2022-11-10T09:23:59.546Z,1019.52
2022-11-10T09:24:59.541Z,1019.53
2022-11-10T09:25:59.533Z,1019.57
2022-11-10T09:26:59.534Z,1019.59
2022-11-10T09:27:59.529Z,1019.59
2022-11-10T09:28:59.529Z,1019.57
2022-11-10T09:29:59.522Z,1019.55
2022-11-10T09:30:59.535Z,1019.61
2022-11-10T09:31:59.518Z,1019.61
2022-11-10T09:32:59.511Z,1019.64
2022-11-10T09:33:59.517Z,1019.66
2022-11-10T09:34:59.507Z,1019.63
2022-11-10T09:35:59.504Z,1019.59
2022-11-10T09:36:59.517Z,1019.52
2022-11-10T09:37:59.505Z,1019.48
2022-11-10T09:38:59.497Z,1019.50
2022-11-10T09:40:01.360Z,1019.56
2022-11-10T09:40:59.494Z,1019.61
2022-11-10T09:41:59.486Z,1019.64
2022-11-10T09:42:59.483Z,1019.67
2022-11-10T09:43:59.490Z,1019.74
2022-11-10T09:44:59.479Z,1019.74
2022-11-10T09:45:59.479Z,1019.76
2022-11-10T09:46:59.485Z,1019.75
2022-11-10T09:47:59.477Z,1019.78
2022-11-10T09:48:59.470Z,1019.82
2022-11-10T09:49:59.465Z,1019.81
2022-11-10T09:50:59.471Z,1019.85
2022-11-10T09:51:59.463Z,1019.88
2022-11-10T09:52:59.479Z,1019.85
2022-11-10T09:53:59.456Z,1019.86
2022-11-10T09:54:59.456Z,1019.93
2022-11-10T09:55:59.446Z,1019.91
2022-11-10T09:56:59.447Z,1019.89
2022-11-10T09:57:59.443Z,1019.91
2022-11-10T09:58:59.442Z,1019.90
2022-11-10T09:59:59.436Z,1019.94
2022-11-10T10:00:59.578Z,1019.91
2022-11-10T10:01:59.491Z,1019.90
2022-11-10T10:02:59.435Z,1019.87
2022-11-10T10:03:59.428Z,1019.84
2022-11-10T10:04:59.437Z,1019.88
2022-11-10T10:05:59.424Z,1019.94
2022-11-10T10:07:10.857Z,1019.97
2022-11-10T10:07:59.467Z,1019.95
2022-11-10T10:08:59.432Z,1019.95
2022-11-10T10:09:59.411Z,1019.98
2022-11-10T10:10:59.411Z,1020.01
2022-11-10T10:11:59.405Z,1019.99
2022-11-10T10:12:59.403Z,1019.99
2022-11-10T10:13:59.400Z,1019.98
2022-11-10T10:14:59.399Z,1019.99
2022-11-10T10:15:59.393Z,1019.95
2022-11-10T10:16:59.390Z,1019.99
2022-11-10T10:17:59.387Z,1020.02
2022-11-10T10:18:59.390Z,1020.04
2022-11-10T10:19:59.386Z,1020.04
2022-11-10T10:20:59.387Z,1020.02
2022-11-10T10:21:59.378Z,1020.03
2022-11-10T10:22:59.378Z,1020.07
2022-11-10T10:24:21.140Z,1020.06
2022-11-10T10:24:59.390Z,1020.04
2022-11-10T10:25:59.368Z,1020.06
2022-11-10T10:26:59.368Z,1020.04
2022-11-10T10:27:59.366Z,1020.09
2022-11-10T10:28:59.359Z,1020.10
2022-11-10T10:29:59.359Z,1020.16
2022-11-10T10:30:59.356Z,1020.10
2022-11-10T10:31:59.353Z,1020.14
2022-11-10T10:32:59.351Z,1020.06
2022-11-10T10:33:59.346Z,1020.07
2022-11-10T10:34:59.346Z,1020.08
2022-11-10T10:35:59.342Z,1020.09
2022-11-10T10:36:59.341Z,1020.05
2022-11-10T10:37:59.336Z,1020.05
2022-11-10T10:38:59.335Z,1020.01
2022-11-10T10:39:59.331Z,1020.02
2022-11-10T10:40:59.357Z,1020.02
2022-11-10T10:41:59.334Z,1020.05
2022-11-10T10:42:59.327Z,1020.02
2022-11-10T10:43:59.321Z,1020.00
2022-11-10T10:44:59.365Z,1019.99
2022-11-10T10:45:59.318Z,1019.98
2022-11-10T10:46:59.332Z,1020.02
2022-11-10T10:47:59.312Z,1019.97
2022-11-10T10:49:26.907Z,1019.99
2022-11-10T10:49:59.305Z,1019.94
2022-11-10T10:50:59.305Z,1019.91
2022-11-10T10:51:59.302Z,1019.94
2022-11-10T10:52:59.301Z,1019.94
2022-11-10T10:53:59.496Z,1019.98
2022-11-10T10:54:59.297Z,1019.94
2022-11-10T10:55:59.290Z,1019.98
2022-11-10T10:56:59.339Z,1019.99
2022-11-10T10:57:59.284Z,1019.96
2022-11-10T10:58:59.282Z,1019.95
2022-11-10T10:59:59.280Z,1019.99
2022-11-10T11:00:59.348Z,1020.01
2022-11-10T11:01:59.343Z,1019.99
2022-11-10T11:03:04.294Z,1019.99
2022-11-10T11:03:59.270Z,1020.00
2022-11-10T11:04:59.272Z,1020.00
2022-11-10T11:05:59.267Z,1020.04
2022-11-10T11:06:59.390Z,1020.01
2022-11-10T11:07:59.266Z,1020.00
2022-11-10T11:09:00.120Z,1020.07
2022-11-10T11:09:59.254Z,1020.02
2022-11-10T11:10:59.270Z,1020.00
2022-11-10T11:11:59.248Z,1019.99
2022-11-10T11:12:59.268Z,1019.98
2022-11-10T11:13:59.247Z,1020.06
2022-11-10T11:14:59.247Z,1020.03
2022-11-10T11:15:59.248Z,1020.03
2022-11-10T11:16:59.293Z,1020.10
2022-11-10T11:17:59.236Z,1020.12
2022-11-10T11:18:59.240Z,1020.15
2022-11-10T11:20:00.234Z,1020.21
2022-11-10T11:20:59.229Z,1020.22
2022-11-10T11:21:59.224Z,1020.23
2022-11-10T11:22:59.225Z,1020.28
2022-11-10T11:23:59.222Z,1020.26
2022-11-10T11:24:59.218Z,1020.35
2022-11-10T11:25:59.221Z,1020.31
2022-11-10T11:26:59.223Z,1020.31
2022-11-10T11:27:59.210Z,1020.34
2022-11-10T11:28:59.226Z,1020.37
2022-11-10T11:29:59.206Z,1020.38
2022-11-10T11:30:59.205Z,1020.39
2022-11-10T11:31:59.199Z,1020.37
2022-11-10T11:32:59.199Z,1020.39
2022-11-10T11:33:59.196Z,1020.35
2022-11-10T11:34:59.202Z,1020.29
2022-11-10T11:35:59.192Z,1020.34
2022-11-10T11:36:59.192Z,1020.33
2022-11-10T11:37:59.189Z,1020.32
2022-11-10T11:38:59.185Z,1020.37
2022-11-10T11:39:59.179Z,1020.37
2022-11-10T11:40:59.179Z,1020.39
2022-11-10T11:41:59.182Z,1020.44
2022-11-10T11:42:59.174Z,1020.39
2022-11-10T11:43:59.171Z,1020.44
2022-11-10T11:44:59.195Z,1020.46
2022-11-10T11:45:59.164Z,1020.47
2022-11-10T11:46:59.169Z,1020.45
2022-11-10T11:47:59.162Z,1020.51
2022-11-10T11:48:59.162Z,1020.57
2022-11-10T11:49:59.158Z,1020.57
2022-11-10T11:50:59.159Z,1020.52
2022-11-10T11:51:59.152Z,1020.58
2022-11-10T11:52:59.160Z,1020.54
2022-11-10T11:53:59.145Z,1020.52
2022-11-10T11:54:59.145Z,1020.51
2022-11-10T11:55:59.140Z,1020.52
2022-11-10T11:56:59.146Z,1020.49
2022-11-10T11:57:59.142Z,1020.54
2022-11-10T11:58:59.142Z,1020.49
2022-11-10T11:59:59.145Z,1020.60
2022-11-10T12:00:59.153Z,1020.63
2022-11-10T12:01:59.163Z,1020.65
2022-11-10T12:02:59.168Z,1020.63
2022-11-10T12:03:59.123Z,1020.66
2022-11-10T12:04:59.126Z,1020.67
2022-11-10T12:05:59.117Z,1020.66